CheckWX is a tool to help pilots better visualize weather data.  It is not intended as a substitute for an official pre-flight weather briefing.

13:21:57 UTC

KLAX METAR
Los Angeles International Airport
Los Angeles, California, USA
Current

29 mins ago

KLAX 211253Z 07003KT 10SM CLR 18/15 A2988 RMK AO2 SLP116 T01830150
Observed
Sep-21 @ 12:53 UTC
Wind
  • 070° at 3 KTS
Visibility
10 SM
Flight Rules
VFR
Cloud Levels
  • Clear skies
Temperature
18°C / 64°F
Dewpoint
15°C / 59°F
Humidity
83%
Altimeter
29.88" Hg
Pressure
1011.82 hPa
Previous

1 hour ago

KLAX 211153Z 05003KT 10SM CLR 19/15 A2987 RMK AO2 SLP112 T01890150 10211 20183 56005
Observed
Sep-21 @ 11:53 UTC
Wind
  • 050° at 3 KTS
Visibility
10 SM
Flight Rules
VFR
Cloud Levels
  • Clear skies
Temperature
19°C / 66°F
Dewpoint
15°C / 59°F
Humidity
78%
Altimeter
29.87" Hg
Pressure
1011.52 hPa
Previous

2 hours ago

KLAX 211053Z 00000KT 10SM CLR 18/15 A2987 RMK AO2 SLP113 T01830150
Observed
Sep-21 @ 10:53 UTC
Visibility
10 SM
Flight Rules
VFR
Cloud Levels
  • Clear skies
Temperature
18°C / 64°F
Dewpoint
15°C / 59°F
Humidity
83%
Altimeter
29.87" Hg
Pressure
1011.52 hPa